»·PEaware :: N333ZA KSZP-KCRQ

N333ZA :: KSZP-KCRQ

FLIGHT INFORMATION

Flight Status: Arrived
Operator: Privately registered:
United States
More flights under this callsign
Pilot: Judd H. (29974)
Aircraft: CESSNA 210 CENTURION
(C210)
More flights by this aircraft type
Origin: KSZP Santa Paula
United States
Destination: KCRQ McClellan-Palomar
United States
More flights between these airports :: More routes between these airports
Route: +FIM V186 DARTS V459 SLI V23 OCN
File this flight plan on PilotEdge
Remarks:
Altitude:
(Current/Filed)
7,000ft
Speed:
(Current/Filed)
150kts
Departed: 06-Nov-20 06:32 PM
Arrived: 06-Nov-20 07:28 PM
Distance/Time
Traveled:
115nm/0:56
Distance/Time
To Go:
Arrived

Flight Plot

Page will automatically refresh every two minutes.

Flight plan parsing failed; only flown route is shown


Map Options




Map Legend


Flown Route
Filed Route
Departure Airport
Arrival Airport
Navaid (VOR, NDB)
Fix

Horizontal Profiles

Position Reports

Time Latitude Longitude Heading Altitude Ground
Speed
06-Nov-20 18:14 34.345269 -119.063928 337 248ft 0kts
06-Nov-20 18:15 34.345269 -119.063928 337 248ft 0kts
06-Nov-20 18:16 34.345269 -119.063928 337 248ft 0kts
06-Nov-20 18:17 34.345269 -119.063928 337 248ft 0kts
06-Nov-20 18:18 34.345278 -119.063932 336 248ft 0kts
06-Nov-20 18:19 34.345278 -119.063932 336 248ft 0kts
06-Nov-20 18:20 34.345279 -119.063932 336 248ft 0kts
06-Nov-20 18:21 34.345279 -119.063933 336 248ft 0kts
06-Nov-20 18:22 34.345279 -119.063933 336 248ft 0kts
06-Nov-20 18:23 34.345280 -119.063933 336 248ft 0kts
06-Nov-20 18:24 34.345280 -119.063933 336 248ft 0kts
06-Nov-20 18:25 34.345280 -119.063933 336 248ft 0kts
06-Nov-20 18:26 34.345776 -119.063167 58 248ft 16kts
06-Nov-20 18:27 34.348334 -119.058714 58 248ft 9kts
06-Nov-20 18:28 34.349104 -119.056924 37 248ft 0kts
06-Nov-20 18:29 34.349105 -119.056923 37 248ft 0kts
06-Nov-20 18:30 34.349030 -119.057929 238 248ft 30kts
06-Nov-20 18:31 34.335578 -119.083394 237 1071ft 118kts
06-Nov-20 18:32 34.320821 -119.118184 298 2471ft 122kts
06-Nov-20 18:33 34.345370 -119.093313 81 3494ft 143kts
06-Nov-20 18:34 34.351095 -119.045313 88 4411ft 144kts
06-Nov-20 18:35 34.353283 -118.996181 91 5263ft 146kts
06-Nov-20 18:36 34.354164 -118.946388 94 6298ft 146kts
06-Nov-20 18:37 34.352311 -118.895684 102 6993ft 166kts
06-Nov-20 18:38 34.341418 -118.843540 119 7780ft 159kts
06-Nov-20 18:39 34.324544 -118.794385 117 8675ft 158kts
06-Nov-20 18:40 34.309169 -118.741476 117 9059ft 178kts
06-Nov-20 18:41 34.289334 -118.686293 120 9115ft 181kts
06-Nov-20 18:42 34.268732 -118.628784 116 9084ft 190kts
06-Nov-20 18:43 34.252054 -118.567552 114 9034ft 190kts
06-Nov-20 18:44 34.237347 -118.507025 113 9012ft 191kts
06-Nov-20 18:45 34.217608 -118.449987 124 9009ft 189kts
06-Nov-20 18:46 34.195277 -118.394311 120 9013ft 187kts
06-Nov-20 18:47 34.176821 -118.335194 115 9118ft 184kts
06-Nov-20 18:48 34.160010 -118.275391 115 9029ft 192kts
06-Nov-20 18:49 34.123067 -118.244393 169 9311ft 162kts
06-Nov-20 18:50 34.077591 -118.224821 165 8882ft 178kts
06-Nov-20 18:51 34.033656 -118.202064 161 8917ft 169kts
06-Nov-20 18:52 33.991698 -118.176891 159 8960ft 168kts
06-Nov-20 18:53 33.950626 -118.152441 165 9043ft 165kts
06-Nov-20 18:54 33.908270 -118.130976 160 9053ft 172kts
06-Nov-20 18:55 33.864893 -118.108458 161 9019ft 170kts
06-Nov-20 18:56 33.821865 -118.085513 158 8908ft 175kts
06-Nov-20 18:57 33.780882 -118.054937 144 8968ft 172kts
06-Nov-20 18:59 33.746524 -118.013414 141 8912ft 178kts
06-Nov-20 19:00 33.711823 -117.971963 144 8937ft 175kts
06-Nov-20 19:01 33.676736 -117.929630 142 8836ft 177kts
06-Nov-20 19:02 33.641073 -117.890959 145 9045ft 167kts
06-Nov-20 19:03 33.606442 -117.848728 146 8809ft 178kts
06-Nov-20 19:04 33.571215 -117.809144 141 8969ft 174kts
06-Nov-20 19:05 33.536952 -117.768116 142 8995ft 176kts
06-Nov-20 19:06 33.502596 -117.726359 140 9051ft 175kts
06-Nov-20 19:07 33.466889 -117.686843 143 8949ft 180kts
06-Nov-20 19:08 33.433043 -117.642823 138 8039ft 174kts
06-Nov-20 19:09 33.399938 -117.602497 140 7331ft 165kts
06-Nov-20 19:10 33.369067 -117.563210 142 6764ft 161kts
06-Nov-20 19:11 33.337082 -117.524915 142 6011ft 163kts
06-Nov-20 19:12 33.304400 -117.488445 140 5345ft 160kts
06-Nov-20 19:13 33.272845 -117.452673 142 4952ft 151kts
06-Nov-20 19:14 33.243428 -117.419143 130 4983ft 146kts
06-Nov-20 19:15 33.237148 -117.365921 102 4540ft 159kts
06-Nov-20 19:16 33.230096 -117.315766 97 4399ft 150kts
06-Nov-20 19:16 33.225754 -117.277140 103 4441ft 141kts
06-Nov-20 19:18 33.218503 -117.222595 103 4410ft 142kts
06-Nov-20 19:18 33.213582 -117.183516 103 4442ft 144kts
06-Nov-20 19:19 33.208439 -117.136887 100 4513ft 146kts
06-Nov-20 19:20 33.197444 -117.088548 134 4056ft 148kts
06-Nov-20 19:21 33.162640 -117.087597 219 3257ft 150kts
06-Nov-20 19:23 33.152104 -117.140013 252 2581ft 143kts
06-Nov-20 19:23 33.145388 -117.177820 252 1997ft 137kts
06-Nov-20 19:24 33.138833 -117.217617 253 1337ft 97kts
06-Nov-20 19:25 33.133544 -117.248011 253 791ft 99kts
06-Nov-20 19:26 33.128674 -117.277539 257 304ft 54kts
06-Nov-20 19:27 33.127498 -117.279722 132 303ft 7kts
06-Nov-20 19:28 33.127528 -117.276284 71 303ft 0kts
06-Nov-20 19:29 33.127529 -117.276284 71 303ft 0kts
06-Nov-20 19:30 33.127529 -117.276284 71 303ft 0kts
06-Nov-20 19:31 33.127529 -117.276284 71 303ft 0kts
06-Nov-20 19:32 33.127529 -117.276284 71 303ft 0kts
06-Nov-20 19:33 33.127529 -117.276284 71 303ft 0kts
06-Nov-20 19:34 33.127529 -117.276284 71 303ft 0kts
06-Nov-20 19:35 33.127529 -117.276284 71 303ft 0kts
06-Nov-20 19:36 33.127529 -117.276284 71 303ft 0kts
06-Nov-20 19:37 33.127529 -117.276284 71 303ft 0kts
06-Nov-20 19:38 33.127529 -117.276284 71 303ft 0kts
06-Nov-20 19:39 33.127529 -117.276284 71 303ft 0kts
06-Nov-20 19:40 33.127529 -117.276284 71 303ft 0kts
06-Nov-20 19:41 33.127529 -117.276284 71 303ft 0kts

Navigation Log

Ident Type
Flight plan parsing failed, navigation log unavailable